Terminal Aerodrome Forecast
Issued by NWS

Home | Current Version | Previous Version | Text Only | Print | Product List | Glossary On
Versions: 1 2 3 4 5 6 7 8 9 10 11 12 13 14 15
000
FTUS42 KMLB 301138
TAFSUA
TAF
KSUA 301138Z 3012/3112 14007KT 6SM -RA VCTS SCT020CB BKN100 OVC250
     FM301400 14012KT P6SM VCTS SCT020CB BKN035 OVC060
      TEMPO 3014/3017 3SM TSRA BKN020CB OVC050
     FM301700 14016G20KT 6SM -RA VCTS BKN030CB OVC100
     FM310100 13007KT P6SM VCSH SCT020 BKN050 OVC250=

USA.gov is the U.S. government's official web portal to all federal, state and local government web resources and services.